Time;durP1;ratioP1;P1;durP2;ratioP2;P2;SDS_P1;SDS_P2;PMS_P1;PMS_P2;Temp;Humidity;BMP_temperature;BMP_pressure;BME280_temperature;BME280_humidity;BME280_pressure;Samples;Min_cycle;Max_cycle;Signal;HPM_P1;HPM_P2
2024/03/23 00:00:42;;;;;;;21.33;12.13;;;;;;;12.77;69.47;99559.56;5049917;27;97465;-73
2024/03/23 00:03:09;;;;;;;21.25;12.00;;;;;;;12.98;68.62;99551.41;5063700;27;96728;-74
2024/03/23 00:05:37;;;;;;;21.27;11.80;;;;;;;12.99;68.23;99546.03;5071891;27;96753;-73
2024/03/23 00:08:04;;;;;;;20.38;11.80;;;;;;;13.01;68.42;99533.66;5049642;27;101482;-73
2024/03/23 00:10:31;;;;;;;16.85;10.50;;;;;;;13.01;68.70;99531.00;5054524;27;101088;-73
2024/03/23 00:13:01;;;;;;;18.80;11.00;;;;;;;13.03;68.41;99523.88;5053868;27;96860;-73
2024/03/23 00:15:33;;;;;;;27.27;11.77;;;;;;;12.46;69.90;99520.91;5075331;27;96673;-73
2024/03/23 00:18:00;;;;;;;18.40;11.15;;;;;;;12.12;70.67;99517.44;5040263;27;97471;-73
2024/03/23 00:20:26;;;;;;;21.98;11.52;;;;;;;12.05;71.51;99513.44;5037632;27;97509;-74
2024/03/23 00:22:53;;;;;;;23.02;12.77;;;;;;;11.82;71.99;99505.88;5056838;27;96897;-73
2024/03/23 00:25:20;;;;;;;21.45;12.63;;;;;;;11.64;72.53;99498.03;5030376;27;96958;-73
2024/03/23 00:27:47;;;;;;;21.90;12.25;;;;;;;11.54;73.30;99488.88;5064872;27;97385;-74
2024/03/23 00:30:13;;;;;;;26.63;14.30;;;;;;;11.43;73.74;99499.09;5060220;27;97367;-73
2024/03/23 00:32:40;;;;;;;24.42;13.32;;;;;;;11.36;73.76;99493.31;5045816;27;96723;-73
2024/03/23 00:35:06;;;;;;;23.63;13.98;;;;;;;11.40;73.98;99491.38;5064564;27;96858;-73
2024/03/23 00:37:33;;;;;;;21.95;12.02;;;;;;;11.42;73.37;99489.53;5070711;27;97471;-73
2024/03/23 00:39:59;;;;;;;25.10;14.13;;;;;;;11.34;73.68;99476.75;5073458;27;97937;-73
2024/03/23 00:42:26;;;;;;;22.20;13.80;;;;;;;11.23;73.80;99472.06;5038756;27;96849;-74
2024/03/23 00:44:53;;;;;;;24.02;14.07;;;;;;;11.18;74.42;99475.84;5050337;27;96818;-73
2024/03/23 00:47:19;;;;;;;23.90;12.98;;;;;;;11.10;74.73;99471.81;5041766;27;101531;-73
2024/03/23 00:49:46;;;;;;;26.13;13.30;;;;;;;11.12;74.29;99476.16;5035439;27;97889;-73
2024/03/23 00:52:12;;;;;;;27.55;14.20;;;;;;;11.25;74.22;99474.59;5043721;27;96789;-73
2024/03/23 00:54:38;;;;;;;25.20;13.77;;;;;;;11.18;73.75;99471.44;5041298;27;97253;-72
2024/03/23 00:57:03;;;;;;;25.13;14.00;;;;;;;11.14;73.42;99455.91;5045974;27;100374;-74
2024/03/23 00:59:30;;;;;;;23.25;13.77;;;;;;;11.17;73.78;99474.13;5021626;27;101322;-73
2024/03/23 01:01:56;;;;;;;24.33;14.52;;;;;;;11.05;73.77;99451.94;5036687;27;96790;-73
2024/03/23 01:04:22;;;;;;;24.25;13.65;;;;;;;11.15;74.11;99460.25;5014842;27;97271;-73
2024/03/23 01:06:48;;;;;;;24.20;13.18;;;;;;;11.10;73.52;99444.69;5033200;27;99738;-74
2024/03/23 01:09:13;;;;;;;23.83;13.10;;;;;;;10.91;73.07;99408.03;5045837;27;97267;-73
2024/03/23 01:11:39;;;;;;;25.88;12.93;;;;;;;10.97;73.77;99441.84;5034013;27;96761;-73
2024/03/23 01:14:06;;;;;;;25.67;12.45;;;;;;;10.79;73.70;99398.09;5030542;27;97603;-74
2024/03/23 01:16:31;;;;;;;18.70;11.63;;;;;;;10.99;73.56;99445.22;5039520;27;97654;-73
2024/03/23 01:18:57;;;;;;;22.25;11.52;;;;;;;11.01;73.46;99426.78;5062422;27;97652;-73
2024/03/23 01:21:23;;;;;;;20.20;12.55;;;;;;;11.00;73.52;99430.34;5058213;27;97048;-73
2024/03/23 01:23:48;;;;;;;26.60;13.98;;;;;;;10.94;73.59;99428.00;5039129;27;96860;-73
2024/03/23 01:26:14;;;;;;;20.38;12.63;;;;;;;10.90;73.43;99405.44;5061464;27;98666;-73
2024/03/23 01:28:40;;;;;;;20.98;11.45;;;;;;;10.92;73.55;99393.09;5039122;27;101263;-73
2024/03/23 01:31:05;;;;;;;25.05;11.75;;;;;;;10.96;73.77;99403.38;5044922;27;96918;-74
2024/03/23 01:33:31;;;;;;;21.42;12.55;;;;;;;11.01;72.83;99397.91;5047470;27;97140;-74
2024/03/23 01:35:56;;;;;;;23.05;11.55;;;;;;;10.91;73.39;99396.63;5035137;27;101381;-73
2024/03/23 01:38:22;;;;;;;19.80;11.75;;;;;;;10.97;73.47;99383.22;5045259;27;97316;-74
2024/03/23 01:40:48;;;;;;;23.10;12.57;;;;;;;10.74;73.10;99340.59;5035459;27;97339;-74
2024/03/23 01:43:13;;;;;;;19.25;12.88;;;;;;;10.74;73.54;99366.00;5046471;27;97104;-73
2024/03/23 01:45:39;;;;;;;18.95;10.90;;;;;;;10.88;73.50;99372.25;5047309;27;98280;-73
2024/03/23 01:48:05;;;;;;;19.25;11.18;;;;;;;10.82;73.76;99369.06;5028769;27;101070;-73
2024/03/23 01:50:33;;;;;;;20.50;11.68;;;;;;;10.84;73.52;99368.06;5034815;27;97304;-73
2024/03/23 01:53:00;;;;;;;25.55;12.25;;;;;;;10.79;73.66;99366.59;5039789;27;96883;-73
2024/03/23 01:55:27;;;;;;;18.55;11.45;;;;;;;10.75;73.52;99351.94;5042996;27;97506;-74
2024/03/23 01:57:52;;;;;;;18.17;10.10;;;;;;;10.75;73.73;99351.94;5037809;27;100806;-73
2024/03/23 02:00:18;;;;;;;19.05;10.82;;;;;;;10.66;73.60;99355.88;5066335;27;97125;-73
2024/03/23 02:02:47;;;;;;;16.77;10.98;;;;;;;10.58;73.56;99331.78;5034751;27;96870;-73
2024/03/23 02:05:13;;;;;;;16.55;10.02;;;;;;;10.71;73.70;99353.88;5064816;27;97673;-73
2024/03/23 02:07:42;;;;;;;15.63;10.38;;;;;;;10.68;73.98;99340.06;5029374;27;100769;-73
2024/03/23 02:10:09;;;;;;;19.55;10.32;;;;;;;10.70;73.53;99338.19;5049365;27;97277;-74
2024/03/23 02:12:35;;;;;;;18.08;10.82;;;;;;;10.74;74.02;99345.84;5052731;27;96817;-73
2024/03/23 02:15:00;;;;;;;25.80;11.30;;;;;;;10.70;73.50;99314.56;5019275;27;101965;-74
2024/03/23 02:17:26;;;;;;;20.05;10.65;;;;;;;10.75;73.95;99346.69;5017552;27;99422;-73
2024/03/23 02:19:52;;;;;;;18.50;10.55;;;;;;;10.80;73.60;99331.56;5053039;27;96864;-78
2024/03/23 02:22:17;;;;;;;16.58;10.18;;;;;;;10.81;73.73;99331.47;5024177;27;96940;-78
2024/03/23 02:24:43;;;;;;;16.52;10.63;;;;;;;10.86;73.58;99318.13;5040531;27;101500;-77
2024/03/23 02:27:08;;;;;;;22.85;11.77;;;;;;;10.84;73.58;99306.84;5040449;27;101375;-78
2024/03/23 02:29:34;;;;;;;17.77;11.05;;;;;;;10.87;73.48;99306.69;5023667;27;96498;-78
2024/03/23 02:31:59;;;;;;;19.13;10.55;;;;;;;10.63;74.08;99312.25;5058441;27;96822;-79
2024/03/23 02:34:25;;;;;;;18.30;10.43;;;;;;;10.55;74.52;99296.03;5057520;27;98412;-78
2024/03/23 02:36:51;;;;;;;21.25;10.52;;;;;;;10.71;73.99;99311.03;5040795;27;101179;-78
2024/03/23 02:39:16;;;;;;;20.27;11.90;;;;;;;10.70;73.88;99304.06;5040597;27;96577;-78
2024/03/23 02:41:41;;;;;;;16.77;10.32;;;;;;;10.79;73.61;99296.59;5023965;27;96898;-78
2024/03/23 02:44:07;;;;;;;18.92;11.32;;;;;;;10.75;73.20;99294.19;5039652;27;101320;-78
2024/03/23 02:46:33;;;;;;;19.00;11.40;;;;;;;10.79;73.50;99295.72;5040260;27;101409;-79
2024/03/23 02:48:58;;;;;;;16.40;10.90;;;;;;;10.80;72.87;99294.81;5040446;27;96646;-79
2024/03/23 02:51:24;;;;;;;15.88;10.40;;;;;;;10.74;72.87;99280.22;5040464;27;96971;-78
2024/03/23 02:53:49;;;;;;;19.95;11.70;;;;;;;10.78;72.83;99288.78;5040136;27;100917;-78
2024/03/23 02:56:16;;;;;;;19.73;11.70;;;;;;;10.72;73.20;99279.44;5040036;27;102103;-78
2024/03/23 02:58:43;;;;;;;20.10;11.88;;;;;;;10.69;73.33;99276.13;5057047;27;96634;-78
2024/03/23 03:01:08;;;;;;;17.05;10.38;;;;;;;10.67;73.46;99270.94;5041160;27;96715;-78
2024/03/23 03:03:33;;;;;;;20.08;10.50;;;;;;;10.74;73.45;99267.09;5057348;27;97480;-78
2024/03/23 03:05:59;;;;;;;18.63;10.48;;;;;;;10.83;72.83;99271.03;5038831;27;100957;-78
2024/03/23 03:08:24;;;;;;;19.58;11.02;;;;;;;10.78;72.91;99270.41;5039767;27;96990;-78
2024/03/23 03:10:50;;;;;;;19.02;11.52;;;;;;;10.87;72.73;99267.31;5040132;27;96608;-78
2024/03/23 03:13:15;;;;;;;19.17;9.80;;;;;;;10.92;72.36;99265.28;5057106;27;98616;-78
2024/03/23 03:15:43;;;;;;;16.80;10.65;;;;;;;11.06;71.95;99254.91;5039859;27;101160;-78
2024/03/23 03:18:09;;;;;;;21.00;11.68;;;;;;;10.93;72.37;99256.47;5040262;27;96619;-78
2024/03/23 03:20:39;;;;;;;18.30;11.40;;;;;;;10.92;72.45;99241.66;5057318;27;96789;-78
2024/03/23 03:23:05;;;;;;;19.88;11.23;;;;;;;10.88;72.61;99248.88;5039817;27;99163;-78
2024/03/23 03:25:30;;;;;;;19.35;10.95;;;;;;;10.94;72.35;99252.06;5040135;27;101157;-78
2024/03/23 03:27:56;;;;;;;16.98;10.85;;;;;;;10.99;72.43;99231.69;5075416;27;96512;-78
2024/03/23 03:30:21;;;;;;;17.58;10.32;;;;;;;10.97;72.36;99230.94;5039957;27;96745;-78
2024/03/23 03:32:47;;;;;;;18.17;10.68;;;;;;;10.93;72.69;99232.84;5022335;27;101495;-78
2024/03/23 03:35:12;;;;;;;20.90;11.02;;;;;;;10.93;72.40;99227.59;5039642;27;101514;-78
2024/03/23 03:37:38;;;;;;;18.85;10.10;;;;;;;10.91;72.32;99212.84;5075650;27;96570;-78
2024/03/23 03:40:04;;;;;;;16.15;10.10;;;;;;;10.90;72.61;99232.16;5039757;27;96860;-78
2024/03/23 03:42:29;;;;;;;17.42;10.65;;;;;;;10.99;71.90;99226.44;5039383;27;101476;-78
2024/03/23 03:44:54;;;;;;;18.27;10.50;;;;;;;10.96;72.31;99222.19;5056856;27;97978;-78
2024/03/23 03:47:20;;;;;;;18.00;10.98;;;;;;;10.85;71.75;99206.19;5056703;27;96558;-78
2024/03/23 03:49:45;;;;;;;17.77;10.45;;;;;;;10.93;72.13;99217.09;5039651;27;96607;-78
2024/03/23 03:52:11;;;;;;;16.20;9.93;;;;;;;10.90;72.32;99212.00;5039179;27;101148;-78
2024/03/23 03:54:36;;;;;;;17.33;10.85;;;;;;;11.05;71.61;99218.22;5039333;27;100910;-78
2024/03/23 03:57:02;;;;;;;18.77;9.90;;;;;;;10.91;72.06;99199.72;5022339;27;96622;-78
2024/03/23 03:59:29;;;;;;;17.55;10.07;;;;;;;10.98;71.89;99198.47;5039412;27;96886;-79
2024/03/23 04:01:54;;;;;;;18.65;10.77;;;;;;;10.95;72.14;99207.38;5039160;27;101468;-78
2024/03/23 04:04:20;;;;;;;18.02;11.10;;;;;;;11.02;72.26;99205.25;5039121;27;101212;-78
2024/03/23 04:06:45;;;;;;;19.95;11.32;;;;;;;11.13;72.00;99207.31;5022918;27;96674;-78
2024/03/23 04:09:11;;;;;;;16.17;9.98;;;;;;;11.33;71.06;99204.44;5056191;27;96868;-78
2024/03/23 04:11:36;;;;;;;17.25;10.88;;;;;;;11.18;71.23;99194.78;5038971;27;100795;-78
2024/03/23 04:14:02;;;;;;;20.10;10.10;;;;;;;11.23;70.65;99198.03;5039428;27;100997;-78
2024/03/23 04:16:29;;;;;;;17.40;10.48;;;;;;;11.49;70.14;99199.19;5039270;27;96536;-78
2024/03/23 04:18:54;;;;;;;18.65;11.38;;;;;;;11.57;69.87;99203.09;5025262;27;96824;-78
2024/03/23 04:21:21;;;;;;;21.13;12.23;;;;;;;11.44;70.09;99212.59;5042002;27;100621;-78
2024/03/23 04:23:46;;;;;;;16.80;11.00;;;;;;;11.26;70.49;99205.72;5025567;27;101043;-78
2024/03/23 04:26:12;;;;;;;20.73;10.70;;;;;;;11.35;70.60;99207.84;5059978;27;96608;-79
2024/03/23 04:28:38;;;;;;;17.95;10.73;;;;;;;11.45;70.33;99219.53;5042559;27;96643;-78
2024/03/23 04:31:04;;;;;;;16.48;10.65;;;;;;;11.62;69.67;99208.09;5025593;27;99911;-78
2024/03/23 04:33:29;;;;;;;20.42;10.98;;;;;;;11.75;69.08;99206.50;5042163;27;101236;-78
2024/03/23 04:35:55;;;;;;;17.15;10.60;;;;;;;11.77;69.23;99199.34;5042585;27;96756;-78
2024/03/23 04:38:20;;;;;;;17.20;9.73;;;;;;;11.70;69.94;99192.75;5078439;27;96753;-78
2024/03/23 04:40:56;;;;;;;18.70;10.52;;;;;;;11.82;69.75;99212.25;5025296;27;99314;-78
2024/03/23 04:43:22;;;;;;;17.15;10.82;;;;;;;11.78;69.49;99198.44;5042122;27;101354;-78
2024/03/23 04:45:48;;;;;;;23.85;11.88;;;;;;;11.80;69.86;99195.69;5042358;27;96608;-78
2024/03/23 04:48:13;;;;;;;15.07;9.80;;;;;;;11.79;70.04;99194.00;5059280;27;96616;-79
2024/03/23 04:50:39;;;;;;;18.02;9.93;;;;;;;11.83;69.19;99198.16;5058633;27;98086;-78
2024/03/23 04:53:04;;;;;;;17.40;9.80;;;;;;;11.71;68.85;99196.22;5025140;27;101308;-78
2024/03/23 04:55:30;;;;;;;17.73;11.18;;;;;;;11.54;68.85;99186.66;5059559;27;96535;-78
2024/03/23 04:57:56;;;;;;;17.38;10.30;;;;;;;11.28;69.39;99186.31;5059162;27;96857;-78
2024/03/23 05:00:23;;;;;;;20.50;12.05;;;;;;;11.10;70.33;99179.44;5058672;27;101265;-78
2024/03/23 05:02:48;;;;;;;18.23;10.77;;;;;;;11.29;70.00;99179.28;5025397;27;101174;-79
2024/03/23 05:05:14;;;;;;;19.77;11.88;;;;;;;11.49;69.73;99167.66;5042397;27;96548;-78
2024/03/23 05:07:41;;;;;;;19.10;11.00;;;;;;;11.65;69.32;99172.91;5042020;27;96799;-78
2024/03/23 05:10:10;;;;;;;17.77;10.65;;;;;;;11.71;68.84;99169.94;5041532;27;100716;-78
2024/03/23 05:12:36;;;;;;;17.48;10.75;;;;;;;11.83;68.53;99174.47;5025173;27;100763;-79
2024/03/23 05:15:01;;;;;;;15.70;11.23;;;;;;;11.96;68.23;99175.50;5025243;27;96611;-79
2024/03/23 05:17:27;;;;;;;15.30;10.05;;;;;;;12.01;68.17;99175.22;5059255;27;96798;-78
2024/03/23 05:19:52;;;;;;;16.75;10.38;;;;;;;11.94;67.93;99145.81;5041699;27;97468;-78
2024/03/23 05:22:18;;;;;;;17.80;10.25;;;;;;;12.14;67.34;99173.59;5058805;27;97162;-78
2024/03/23 05:24:45;;;;;;;18.15;10.77;;;;;;;12.21;66.90;99167.03;5058651;27;96569;-78
2024/03/23 05:27:11;;;;;;;16.80;10.98;;;;;;;12.22;67.10;99168.72;5042228;27;96840;-78
2024/03/23 05:29:36;;;;;;;16.50;10.88;;;;;;;12.09;66.79;99151.97;5040426;27;100707;-78
2024/03/23 05:32:02;;;;;;;19.45;11.88;;;;;;;12.06;66.32;99139.00;5024547;27;101264;-78
2024/03/23 05:34:28;;;;;;;17.20;11.18;;;;;;;12.23;66.45;99149.38;5040956;27;96595;-78
2024/03/23 05:36:54;;;;;;;17.20;10.73;;;;;;;12.22;66.21;99146.84;5042087;27;96642;-78
2024/03/23 05:39:22;;;;;;;20.95;12.25;;;;;;;12.06;66.25;99143.41;5024397;27;102100;-78
2024/03/23 05:41:48;;;;;;;19.40;11.00;;;;;;;12.19;66.16;99147.03;5041108;27;101706;-78
2024/03/23 05:44:14;;;;;;;15.35;10.50;;;;;;;12.24;65.89;99139.69;5041465;27;96587;-79
2024/03/23 05:46:40;;;;;;;16.05;10.68;;;;;;;12.43;65.64;99137.66;5058806;27;96889;-79
2024/03/23 05:49:06;;;;;;;15.77;10.23;;;;;;;12.43;64.61;99136.81;5024254;27;101934;-78
2024/03/23 05:51:32;;;;;;;20.02;11.30;;;;;;;12.45;64.60;99135.78;5041115;27;100726;-78
2024/03/23 05:53:57;;;;;;;17.65;10.20;;;;;;;12.98;63.69;99124.69;5041728;27;96547;-78
2024/03/23 05:56:23;;;;;;;15.85;9.73;;;;;;;13.32;62.55;99128.66;5041374;27;96937;-78
2024/03/23 05:58:48;;;;;;;15.95;10.40;;;;;;;13.22;62.71;99122.28;5040633;27;97645;-79
2024/03/23 06:01:14;;;;;;;21.15;11.13;;;;;;;12.97;62.51;99115.91;5058012;27;97457;-79
2024/03/23 06:03:39;;;;;;;20.30;11.00;;;;;;;13.09;62.13;99101.13;5041804;27;96617;-79
2024/03/23 06:06:10;;;;;;;14.75;10.13;;;;;;;13.22;61.93;99109.94;5041182;27;96952;-79
2024/03/23 06:08:35;;;;;;;20.52;10.38;;;;;;;13.06;62.71;99115.34;5041344;27;101110;-78
2024/03/23 06:11:01;;;;;;;17.15;10.15;;;;;;;13.29;62.08;99127.09;5058086;27;98546;-79
2024/03/23 06:13:29;;;;;;;18.65;10.50;;;;;;;14.00;61.11;99123.31;5040961;27;96614;-79
2024/03/23 06:15:55;;;;;;;17.60;10.80;;;;;;;14.17;59.38;99116.06;5059039;27;96862;-79
2024/03/23 06:18:21;;;;;;;18.48;10.73;;;;;;;14.63;58.95;99131.38;5040408;27;98920;-79
2024/03/23 06:20:46;;;;;;;17.52;9.77;;;;;;;14.89;57.84;99133.06;5040517;27;101234;-78
2024/03/23 06:23:12;;;;;;;13.45;9.80;;;;;;;14.85;57.70;99144.78;5023496;27;96694;-78
2024/03/23 06:25:38;;;;;;;17.15;9.98;;;;;;;14.65;58.36;99140.91;5024074;27;96813;-78
2024/03/23 06:28:04;;;;;;;16.35;10.27;;;;;;;14.24;59.50;99135.78;5040569;27;98015;-79
2024/03/23 06:30:31;;;;;;;15.35;10.48;;;;;;;13.90;59.73;99131.94;5040241;27;101393;-79
2024/03/23 06:32:57;;;;;;;16.90;10.43;;;;;;;13.79;60.03;99125.59;5040900;27;96526;-78
2024/03/23 06:35:22;;;;;;;17.45;10.02;;;;;;;13.70;60.14;99120.94;5023869;27;96925;-78
2024/03/23 06:37:48;;;;;;;13.75;9.50;;;;;;;13.02;61.56;99100.66;5057229;27;101765;-79
2024/03/23 06:40:13;;;;;;;17.77;11.25;;;;;;;13.04;62.29;99088.25;5057026;27;101366;-78
2024/03/23 06:42:39;;;;;;;17.67;9.43;;;;;;;13.87;60.20;99082.00;5040527;27;96584;-78
2024/03/23 06:45:05;;;;;;;15.02;10.43;;;;;;;13.98;60.08;99076.88;5023815;27;97024;-78
2024/03/23 06:47:31;;;;;;;17.38;9.65;;;;;;;14.19;59.11;99064.84;5039865;27;97497;-78
2024/03/23 06:49:57;;;;;;;16.60;9.98;;;;;;;14.76;57.73;99082.03;5056714;27;97417;-78
2024/03/23 06:52:22;;;;;;;14.75;9.63;;;;;;;15.76;55.84;99074.78;5040331;27;96590;-79
2024/03/23 06:54:48;;;;;;;17.38;9.70;;;;;;;16.38;53.71;99063.03;5057273;27;96845;-79
2024/03/23 06:57:13;;;;;;;20.23;10.43;;;;;;;16.02;53.79;99067.53;5039762;27;101452;-79
2024/03/23 06:59:39;;;;;;;16.08;9.63;;;;;;;16.51;52.91;99063.75;5039596;27;101168;-79
2024/03/23 07:02:08;;;;;;;14.80;8.82;;;;;;;18.28;49.64;99051.00;5040256;27;96565;-79
2024/03/23 07:04:34;;;;;;;15.05;9.00;;;;;;;21.55;43.81;99041.22;5040978;27;96827;-80
2024/03/23 07:06:59;;;;;;;15.30;11.13;;;;;;;23.39;39.67;99040.94;5057168;27;97809;-79
2024/03/23 07:09:26;;;;;;;13.55;8.93;;;;;;;24.05;37.96;99036.41;5056904;27;97714;-79
2024/03/23 07:11:54;;;;;;;11.35;8.45;;;;;;;25.32;35.50;99022.06;5022941;27;96569;-79
2024/03/23 07:14:20;;;;;;;11.13;8.02;;;;;;;27.18;33.42;99003.34;5040219;27;96640;-80
2024/03/23 07:16:45;;;;;;;12.15;8.80;;;;;;;28.39;31.03;98996.06;5056871;27;97374;-80
2024/03/23 07:19:11;;;;;;;11.35;8.82;;;;;;;28.70;29.95;99000.16;5075045;27;97410;-80
2024/03/23 07:21:36;;;;;;;11.93;7.47;;;;;;;30.11;28.43;98989.41;5039924;27;96552;-80
2024/03/23 07:24:02;;;;;;;11.02;8.55;;;;;;;31.44;26.69;98986.19;5057388;27;97029;-80
2024/03/23 07:26:28;;;;;;;12.05;9.13;;;;;;;29.47;28.00;98980.03;5057021;27;97409;-80
2024/03/23 07:28:53;;;;;;;12.35;8.18;;;;;;;29.38;28.53;98986.69;5039467;27;100939;-80
2024/03/23 07:31:19;;;;;;;18.60;17.10;;;;;;;30.86;26.83;98973.59;5040145;27;96713;-80
2024/03/23 07:33:46;;;;;;;11.27;8.52;;;;;;;31.55;26.06;98949.41;5056953;27;96871;-80
2024/03/23 07:36:12;;;;;;;17.13;8.88;;;;;;;32.14;25.31;98958.88;5038912;27;101126;-80
2024/03/23 07:38:37;;;;;;;14.35;8.82;;;;;;;33.15;24.22;98948.47;5056417;27;97388;-80
2024/03/23 07:41:10;;;;;;;13.38;8.52;;;;;;;32.95;23.97;98954.16;5039418;27;96711;-78
2024/03/23 07:43:40;;;;;;;11.48;8.43;;;;;;;30.52;26.29;98952.28;5039536;27;96862;-78
2024/03/23 07:46:05;;;;;;;12.27;8.30;;;;;;;30.87;25.99;98939.22;5056727;27;98096;-78
2024/03/23 07:48:31;;;;;;;9.90;7.97;;;;;;;32.61;24.68;98937.50;5039192;27;101407;-79
2024/03/23 07:51:07;;;;;;;11.82;8.32;;;;;;;35.99;21.67;98925.69;5039240;27;96754;-78
2024/03/23 07:53:34;;;;;;;9.48;7.07;;;;;;;34.12;22.70;98920.09;5059509;27;96913;-78
2024/03/23 07:56:02;;;;;;;14.20;7.95;;;;;;;30.40;26.65;98901.50;5042743;27;101758;-78
2024/03/23 07:58:27;;;;;;;10.75;7.60;;;;;;;28.54;29.16;98900.66;5042495;27;100487;-78
2024/03/23 08:00:54;;;;;;;9.73;7.60;;;;;;;25.04;33.18;98901.72;5042546;27;96745;-78
2024/03/23 08:03:19;;;;;;;11.68;7.82;;;;;;;21.89;37.61;98910.47;5059796;27;97002;-77
2024/03/23 08:05:45;;;;;;;11.77;8.20;;;;;;;20.84;40.26;98893.47;5042628;27;101118;-80
2024/03/23 08:08:10;;;;;;;11.05;8.85;;;;;;;20.37;41.63;98906.13;5059827;27;97851;-80
2024/03/23 08:10:37;;;;;;;9.80;7.50;;;;;;;19.94;42.37;98916.38;5025842;27;96663;-79
2024/03/23 08:13:03;;;;;;;15.20;8.27;;;;;;;18.58;45.09;98916.44;5043331;27;96776;-80
2024/03/23 08:15:32;;;;;;;10.18;8.02;;;;;;;18.43;46.00;98916.00;5060033;27;97511;-80
2024/03/23 08:17:59;;;;;;;12.05;8.82;;;;;;;19.20;44.98;98909.94;5043091;27;100950;-79
2024/03/23 08:20:25;;;;;;;11.77;8.63;;;;;;;19.34;44.43;98902.50;5042622;27;96557;-80
2024/03/23 08:22:50;;;;;;;19.10;8.60;;;;;;;19.45;44.80;98892.53;5060207;27;96916;-79
2024/03/23 08:25:16;;;;;;;12.90;7.68;;;;;;;20.05;43.17;98889.56;5041836;27;101596;-80
2024/03/23 08:27:44;;;;;;;10.75;8.25;;;;;;;19.57;43.91;98879.91;5042286;27;100875;-79
2024/03/23 08:30:10;;;;;;;15.27;8.70;;;;;;;18.03;46.90;98877.00;5059291;27;96562;-80
2024/03/23 08:32:36;;;;;;;14.18;8.25;;;;;;;17.63;48.07;98859.22;5042495;27;96924;-79
2024/03/23 08:35:02;;;;;;;12.68;8.20;;;;;;;17.48;49.04;98867.66;5042021;27;102043;-80
2024/03/23 08:37:27;;;;;;;11.85;8.88;;;;;;;24.74;36.76;98830.19;5025199;27;101410;-80
2024/03/23 08:39:53;;;;;;;11.98;8.15;;;;;;;30.35;28.51;98836.38;5059379;27;96672;-80
2024/03/23 08:42:18;;;;;;;10.10;7.93;;;;;;;24.17;35.12;98845.59;5043074;27;96819;-83
2024/03/23 08:44:46;;;;;;;11.88;8.05;;;;;;;25.06;33.74;98827.22;5025165;27;101451;-84
2024/03/23 08:47:12;;;;;;;12.02;8.52;;;;;;;22.19;38.69;98814.78;5042187;27;101116;-83
2024/03/23 08:49:37;;;;;;;18.25;11.05;;;;;;;19.62;43.71;98812.94;5057756;27;96638;-82
2024/03/23 08:52:03;;;;;;;12.85;9.85;;;;;;;18.24;46.77;98818.53;5025368;27;96675;-83
2024/03/23 08:54:31;;;;;;;10.57;8.55;;;;;;;17.53;48.23;98818.53;5041906;27;98457;-82
2024/03/23 08:56:56;;;;;;;12.52;8.73;;;;;;;16.49;50.44;98806.97;5025126;27;101044;-82
2024/03/23 08:59:23;;;;;;;14.52;8.05;;;;;;;16.42;51.23;98824.31;5041767;27;96716;-82
2024/03/23 09:01:49;;;;;;;11.27;8.07;;;;;;;16.49;51.17;98817.56;5041822;27;96821;-82
2024/03/23 09:04:14;;;;;;;21.00;8.52;;;;;;;16.01;52.69;98815.28;5040248;27;98282;-82
2024/03/23 09:06:43;;;;;;;17.27;8.82;;;;;;;15.93;53.15;98807.09;5041799;27;101311;-82
2024/03/23 09:09:08;;;;;;;14.23;7.80;;;;;;;15.49;54.76;98779.69;5041707;27;96661;-80
2024/03/23 09:11:34;;;;;;;11.50;8.13;;;;;;;15.57;55.05;98784.38;5042080;27;96698;-83
2024/03/23 09:13:59;;;;;;;14.70;8.45;;;;;;;15.43;55.20;98779.34;5041524;27;97860;-80
2024/03/23 09:16:25;;;;;;;18.13;8.60;;;;;;;15.27;55.59;98767.31;5041331;27;101122;-81
2024/03/23 09:18:52;;;;;;;11.88;7.88;;;;;;;15.11;55.33;98770.31;5042001;27;96963;-82
2024/03/23 09:21:17;;;;;;;12.15;8.80;;;;;;;14.90;55.86;98767.50;5024739;27;96855;-82
2024/03/23 09:23:44;;;;;;;11.75;8.23;;;;;;;15.03;55.58;98761.28;5024422;27;101332;-82
2024/03/23 09:26:09;;;;;;;11.25;8.25;;;;;;;14.99;55.75;98739.53;5041668;27;98038;-82
2024/03/23 09:28:35;;;;;;;12.77;7.68;;;;;;;15.10;55.79;98749.28;5041248;27;96674;-82
2024/03/23 09:31:04;;;;;;;13.93;7.95;;;;;;;14.99;55.98;98730.78;5025003;27;96987;-82
2024/03/23 09:33:30;;;;;;;12.07;7.65;;;;;;;15.12;55.83;98740.25;5040920;27;102157;-82
2024/03/23 09:35:56;;;;;;;10.82;8.52;;;;;;;15.00;55.77;98743.88;5024362;27;101690;-82
2024/03/23 09:38:22;;;;;;;14.50;7.65;;;;;;;15.17;55.84;98730.19;5024277;27;96514;-81
2024/03/23 09:40:50;;;;;;;12.05;7.82;;;;;;;17.05;51.43;98721.03;5042158;27;96739;-83
2024/03/23 09:43:15;;;;;;;12.60;6.80;;;;;;;18.80;47.21;98705.41;5024477;27;101543;-84
2024/03/23 09:45:41;;;;;;;12.35;7.30;;;;;;;17.77;48.39;98697.94;5041520;27;97530;-83
2024/03/23 09:48:08;;;;;;;11.00;6.75;;;;;;;17.63;48.61;98693.91;5041353;27;96650;-82
2024/03/23 09:50:35;;;;;;;9.40;6.53;;;;;;;21.37;42.57;98684.44;5040753;27;96853;-83
2024/03/23 09:53:01;;;;;;;9.77;6.97;;;;;;;19.10;45.34;98682.22;5024209;27;101337;-82
2024/03/23 09:55:26;;;;;;;11.77;6.85;;;;;;;17.71;48.51;98672.81;5024436;27;101093;-82
2024/03/23 09:57:52;;;;;;;13.88;6.85;;;;;;;17.08;50.41;98675.72;5024545;27;96550;-81
2024/03/23 10:00:18;;;;;;;13.63;7.15;;;;;;;16.68;51.22;98670.31;5040919;27;96961;-82
2024/03/23 10:02:43;;;;;;;9.40;6.72;;;;;;;16.73;51.68;98652.22;5040549;27;97608;-80
2024/03/23 10:05:27;;;;;;;15.10;7.78;;;;;;;17.10;50.98;98649.88;5040597;27;101090;-82
2024/03/23 10:07:53;;;;;;;10.70;6.40;;;;;;;21.89;42.39;98638.03;5042018;27;96595;-80
2024/03/23 10:10:19;;;;;;;9.60;6.97;;;;;;;22.97;38.78;98625.28;5040968;27;96921;-81
2024/03/23 10:12:52;;;;;;;11.68;6.78;;;;;;;21.06;42.33;98636.09;5040644;27;98539;-82
2024/03/23 10:15:19;;;;;;;9.65;7.35;;;;;;;20.32;43.72;98632.94;5057571;27;97404;-78
2024/03/23 10:17:45;;;;;;;11.73;6.85;;;;;;;19.90;44.49;98625.63;5058055;27;96606;-78
2024/03/23 10:20:11;;;;;;;14.02;6.70;;;;;;;19.58;45.66;98628.78;5041146;27;96854;-78
2024/03/23 10:22:40;;;;;;;13.57;8.10;;;;;;;19.06;45.98;98632.97;5057404;27;101281;-79
2024/03/23 10:25:10;;;;;;;9.50;7.70;;;;;;;19.99;44.63;98628.34;5023654;27;101068;-80
2024/03/23 10:27:36;;;;;;;12.90;7.05;;;;;;;18.91;46.92;98620.16;5040131;27;96741;-79
2024/03/23 10:30:09;;;;;;;13.05;7.22;;;;;;;18.80;47.69;98623.00;5040534;27;96813;-80
2024/03/23 10:32:35;;;;;;;10.18;6.88;;;;;;;18.84;47.26;98608.44;5040304;27;101039;-79
2024/03/23 10:35:28;;;;;;;11.90;6.85;;;;;;;19.11;47.09;98607.63;5040364;27;101177;-79
2024/03/23 10:37:55;;;;;;;10.57;7.18;;;;;;;18.95;47.48;98600.28;5036189;27;96831;-80
2024/03/23 10:40:20;;;;;;;9.43;6.50;;;;;;;18.70;48.17;98595.59;5023712;27;96837;-81
2024/03/23 10:42:46;;;;;;;10.15;6.78;;;;;;;18.90;48.20;98599.03;5057355;27;97870;-80
2024/03/23 10:45:12;;;;;;;10.63;6.80;;;;;;;19.07;47.75;98600.09;5023485;27;101715;-80
2024/03/23 10:47:37;;;;;;;9.30;6.75;;;;;;;18.97;47.71;98600.13;5040392;27;96478;-80
2024/03/23 10:50:06;;;;;;;10.15;6.95;;;;;;;19.38;47.77;98580.16;5039375;27;96812;-80
2024/03/23 10:52:33;;;;;;;9.02;6.70;;;;;;;19.50;47.41;98582.59;5039245;27;101833;-79
2024/03/23 10:55:03;;;;;;;12.50;6.90;;;;;;;19.27;47.58;98572.38;5040678;27;96578;-80
2024/03/23 10:57:40;;;;;;;12.30;6.95;;;;;;;19.23;47.80;98568.38;5023220;27;96718;-81
2024/03/23 11:00:06;;;;;;;8.30;4.53;;;;;;;19.11;48.40;98573.06;5040052;27;96749;-80
2024/03/23 11:02:32;;;;;;;6.70;3.63;;;;;;;18.94;46.96;98571.19;5039428;27;101595;-79
2024/03/23 11:04:57;;;;;;;5.78;3.40;;;;;;;18.80;47.19;98555.72;5056480;27;100627;-80
2024/03/23 11:07:26;;;;;;;9.05;5.85;;;;;;;19.17;47.09;98550.34;5040264;27;96579;-81
2024/03/23 11:09:52;;;;;;;8.57;5.38;;;;;;;19.74;46.73;98547.44;5057416;27;96545;-81
2024/03/23 11:12:23;;;;;;;8.07;4.88;;;;;;;20.17;45.81;98543.94;5039736;27;101318;-82
2024/03/23 11:15:05;;;;;;;6.82;3.40;;;;;;;19.90;45.76;98543.06;5057413;27;97669;-79